createdAt,value
2022-10-19T00:00:07.282Z,184.50
2022-10-19T00:00:16.717Z,176.30
2022-10-19T00:00:26.840Z,173.20
2022-10-19T00:00:36.724Z,170.80
2022-10-19T00:00:46.744Z,177.60
2022-10-19T00:00:56.693Z,173.20
2022-10-19T00:01:06.691Z,171.10
2022-10-19T00:01:16.771Z,166.40
2022-10-19T00:01:26.699Z,166.80
2022-10-19T00:01:36.860Z,161.80
2022-10-19T00:01:47.311Z,158.50
2022-10-19T00:01:56.782Z,159.70
2022-10-19T00:02:06.750Z,164.10
2022-10-19T00:02:16.758Z,167.20
2022-10-19T00:02:26.869Z,164.60
2022-10-19T00:02:36.701Z,163.80
2022-10-19T00:02:47.256Z,160.10
2022-10-19T00:02:56.698Z,163.60
2022-10-19T00:03:06.688Z,169.60
2022-10-19T00:03:20.708Z,170.40
2022-10-19T00:03:26.707Z,172.40
2022-10-19T00:03:36.771Z,164.60
2022-10-19T00:03:46.753Z,164.90
2022-10-19T00:03:56.708Z,163.10
2022-10-19T00:04:08.764Z,167.70
2022-10-19T00:04:16.687Z,169.40
2022-10-19T00:04:27.224Z,175.30
2022-10-19T00:04:36.748Z,179.00
2022-10-19T00:04:46.859Z,185.40
2022-10-19T00:04:56.716Z,181.70
2022-10-19T00:05:06.670Z,178.60
2022-10-19T00:05:16.697Z,172.10
2022-10-19T00:05:26.688Z,174.30
2022-10-19T00:05:37.633Z,175.20
2022-10-19T00:05:46.677Z,177.10
2022-10-19T00:05:56.832Z,175.50
2022-10-19T00:06:06.665Z,175.30
2022-10-19T00:06:16.685Z,176.10
2022-10-19T00:06:26.681Z,175.20
2022-10-19T00:06:37.225Z,171.80
2022-10-19T00:06:46.905Z,166.80
2022-10-19T00:06:56.679Z,161.00
2022-10-19T00:07:06.666Z,165.90
2022-10-19T00:07:16.770Z,167.60
2022-10-19T00:07:26.663Z,171.70
2022-10-19T00:07:36.952Z,170.30
2022-10-19T00:07:46.660Z,172.10
2022-10-19T00:07:56.688Z,170.90
2022-10-19T00:08:06.668Z,168.10
2022-10-19T00:08:16.673Z,168.00
2022-10-19T00:08:26.659Z,166.70
2022-10-19T00:08:36.677Z,170.00
2022-10-19T00:08:46.779Z,176.30
2022-10-19T00:08:56.716Z,181.40
2022-10-19T00:09:06.663Z,183.50
2022-10-19T00:09:16.665Z,181.40
2022-10-19T00:09:26.668Z,184.80
2022-10-19T00:09:36.775Z,181.20
2022-10-19T00:09:46.666Z,180.30
2022-10-19T00:09:56.653Z,169.50
2022-10-19T00:10:06.681Z,168.30
2022-10-19T00:10:16.691Z,165.00
2022-10-19T00:10:26.662Z,170.40
2022-10-19T00:10:36.658Z,184.90
2022-10-19T00:10:46.800Z,186.60
2022-10-19T00:10:56.654Z,186.50
2022-10-19T00:11:06.657Z,177.30
2022-10-19T00:11:16.682Z,174.70
2022-10-19T00:11:26.661Z,181.40
2022-10-19T00:11:36.652Z,183.20
2022-10-19T00:11:46.647Z,186.00
2022-10-19T00:11:56.660Z,182.00
2022-10-19T00:12:06.667Z,177.30
2022-10-19T00:12:16.645Z,180.20
2022-10-19T00:12:26.697Z,179.60
2022-10-19T00:12:36.761Z,175.50
2022-10-19T00:12:56.764Z,173.60
2022-10-19T00:13:06.644Z,178.90
2022-10-19T00:13:16.641Z,178.90
2022-10-19T00:13:26.639Z,185.90
2022-10-19T00:13:36.665Z,181.70
2022-10-19T00:13:46.643Z,183.30
2022-10-19T00:13:56.662Z,174.20
2022-10-19T00:14:06.654Z,185.10
2022-10-19T00:14:16.638Z,185.30
2022-10-19T00:14:26.650Z,192.10
2022-10-19T00:14:39.244Z,187.90
2022-10-19T00:14:46.648Z,189.00
2022-10-19T00:14:57.243Z,183.40
2022-10-19T00:15:06.781Z,184.90
2022-10-19T00:15:16.646Z,187.30
2022-10-19T00:15:26.660Z,190.50
2022-10-19T00:15:36.629Z,188.50
2022-10-19T00:15:46.662Z,188.60
2022-10-19T00:15:56.711Z,188.00
2022-10-19T00:16:07.986Z,189.10
2022-10-19T00:16:16.651Z,182.90
2022-10-19T00:16:27.226Z,182.70
2022-10-19T00:16:36.632Z,180.90
2022-10-19T00:16:46.666Z,180.30
2022-10-19T00:16:56.769Z,180.80
2022-10-19T00:17:06.755Z,184.00
2022-10-19T00:17:16.640Z,188.00
2022-10-19T00:17:26.638Z,189.10
2022-10-19T00:17:36.625Z,188.10
2022-10-19T00:17:46.661Z,187.30
2022-10-19T00:17:56.633Z,185.80
2022-10-19T00:18:06.622Z,185.60
2022-10-19T00:18:16.623Z,189.50
2022-10-19T00:18:26.613Z,190.90
2022-10-19T00:18:36.630Z,190.80
2022-10-19T00:18:46.633Z,189.60
2022-10-19T00:18:56.623Z,194.50
2022-10-19T00:19:07.231Z,194.30
2022-10-19T00:19:16.753Z,196.80
2022-10-19T00:19:27.227Z,195.10
2022-10-19T00:19:36.626Z,195.70
2022-10-19T00:19:46.644Z,191.70
2022-10-19T00:19:56.667Z,192.40
2022-10-19T00:20:06.621Z,193.40
2022-10-19T00:20:16.685Z,198.00
2022-10-19T00:20:26.619Z,191.40
2022-10-19T00:20:36.614Z,192.90
2022-10-19T00:20:46.614Z,186.80
2022-10-19T00:20:56.640Z,194.10
2022-10-19T00:21:06.648Z,192.50
2022-10-19T00:21:16.683Z,196.30
2022-10-19T00:21:26.632Z,191.10
2022-10-19T00:21:36.613Z,190.80
2022-10-19T00:21:46.705Z,188.30
2022-10-19T00:21:56.631Z,187.30
2022-10-19T00:22:08.106Z,184.20
2022-10-19T00:22:16.652Z,185.50
2022-10-19T00:22:26.627Z,187.80
2022-10-19T00:22:36.621Z,187.00
2022-10-19T00:22:46.697Z,187.90
2022-10-19T00:22:56.595Z,189.70
2022-10-19T00:23:06.627Z,194.60
2022-10-19T00:23:17.227Z,194.20
2022-10-19T00:23:26.591Z,201.60
2022-10-19T00:23:36.600Z,205.50
2022-10-19T00:23:46.605Z,204.10
2022-10-19T00:23:56.614Z,192.30
2022-10-19T00:24:06.600Z,189.40
2022-10-19T00:24:16.605Z,188.60
2022-10-19T00:24:26.604Z,192.90
2022-10-19T00:24:36.643Z,191.80
2022-10-19T00:24:46.589Z,189.00
2022-10-19T00:24:57.225Z,188.40
2022-10-19T00:25:06.588Z,187.20
2022-10-19T00:25:17.240Z,192.20
2022-10-19T00:25:26.659Z,190.90
2022-10-19T00:25:37.240Z,188.80
2022-10-19T00:25:46.597Z,186.00
2022-10-19T00:25:56.595Z,188.50
2022-10-19T00:26:06.593Z,193.80
2022-10-19T00:26:16.641Z,193.70
2022-10-19T00:26:26.583Z,196.20
2022-10-19T00:26:36.691Z,193.10
2022-10-19T00:26:46.578Z,197.40
2022-10-19T00:26:56.619Z,194.60
2022-10-19T00:27:06.596Z,198.60
2022-10-19T00:27:16.605Z,195.90
2022-10-19T00:27:26.678Z,197.80
2022-10-19T00:27:36.597Z,188.70
2022-10-19T00:27:46.587Z,192.90
2022-10-19T00:27:56.676Z,190.10
2022-10-19T00:28:06.578Z,198.30
2022-10-19T00:28:16.584Z,193.20
2022-10-19T00:28:26.622Z,186.90
2022-10-19T00:28:36.653Z,178.70
2022-10-19T00:28:46.696Z,179.50
2022-10-19T00:28:56.704Z,183.70
2022-10-19T00:29:06.691Z,182.00
2022-10-19T00:29:16.660Z,185.10
2022-10-19T00:29:26.601Z,186.00
2022-10-19T00:29:36.638Z,187.40
2022-10-19T00:29:46.570Z,179.40
2022-10-19T00:29:56.595Z,171.90
2022-10-19T00:30:06.571Z,173.10
2022-10-19T00:30:16.573Z,180.20
2022-10-19T00:30:26.575Z,186.50
2022-10-19T00:30:36.577Z,186.70
2022-10-19T00:30:46.617Z,178.00
2022-10-19T00:30:56.562Z,171.90
2022-10-19T00:31:06.586Z,171.00
2022-10-19T00:31:16.572Z,175.60
2022-10-19T00:31:26.700Z,178.50
2022-10-19T00:31:36.602Z,176.70
2022-10-19T00:31:46.571Z,174.30
2022-10-19T00:31:56.580Z,171.60
2022-10-19T00:32:06.560Z,168.20
2022-10-19T00:32:16.592Z,172.70
2022-10-19T00:32:26.558Z,168.80
2022-10-19T00:32:36.640Z,175.50
2022-10-19T00:32:46.565Z,176.90
2022-10-19T00:32:56.559Z,180.10
2022-10-19T00:33:06.594Z,182.90
2022-10-19T00:33:16.569Z,178.20
2022-10-19T00:33:26.558Z,181.70
2022-10-19T00:33:36.560Z,177.20
2022-10-19T00:33:46.626Z,177.30
2022-10-19T00:33:56.559Z,179.20
2022-10-19T00:34:06.547Z,183.60
2022-10-19T00:34:16.571Z,186.10
2022-10-19T00:34:26.636Z,182.00
2022-10-19T00:34:36.651Z,176.50
2022-10-19T00:34:46.555Z,179.30
2022-10-19T00:34:56.556Z,179.00
2022-10-19T00:35:06.549Z,175.90
2022-10-19T00:35:16.556Z,169.50
2022-10-19T00:35:26.576Z,172.60
2022-10-19T00:35:36.549Z,172.90
2022-10-19T00:35:47.227Z,172.80
2022-10-19T00:35:57.347Z,173.60
2022-10-19T00:36:06.557Z,176.30
2022-10-19T00:36:16.547Z,178.20
2022-10-19T00:36:26.543Z,174.10
2022-10-19T00:36:36.615Z,169.10
2022-10-19T00:36:46.546Z,169.70
2022-10-19T00:36:56.582Z,171.70
2022-10-19T00:37:06.538Z,174.40
2022-10-19T00:37:16.552Z,172.00
2022-10-19T00:37:26.615Z,174.30
2022-10-19T00:37:36.542Z,179.80
2022-10-19T00:37:46.554Z,176.60
2022-10-19T00:37:56.688Z,171.30
2022-10-19T00:38:06.564Z,163.50
2022-10-19T00:38:16.548Z,168.40
2022-10-19T00:38:26.668Z,168.30
2022-10-19T00:38:36.529Z,170.50
2022-10-19T00:38:46.526Z,166.20
2022-10-19T00:38:56.554Z,165.50
2022-10-19T00:39:06.529Z,166.90
2022-10-19T00:39:16.532Z,167.80
2022-10-19T00:39:26.535Z,172.20
2022-10-19T00:39:36.532Z,171.40
2022-10-19T00:39:46.582Z,171.10
2022-10-19T00:39:57.274Z,161.20
2022-10-19T00:40:06.530Z,155.90
2022-10-19T00:40:16.533Z,151.30
2022-10-19T00:40:26.533Z,163.50
2022-10-19T00:40:36.531Z,166.80
2022-10-19T00:40:46.518Z,169.30
2022-10-19T00:40:56.542Z,158.30
2022-10-19T00:41:06.536Z,158.80
2022-10-19T00:41:16.528Z,159.70
2022-10-19T00:41:26.515Z,160.40
2022-10-19T00:41:36.512Z,153.80
2022-10-19T00:41:46.584Z,150.70
2022-10-19T00:41:56.692Z,151.90
2022-10-19T00:42:06.604Z,157.30
2022-10-19T00:42:16.536Z,161.60
2022-10-19T00:42:26.518Z,161.80
2022-10-19T00:42:36.511Z,158.00
2022-10-19T00:42:46.548Z,155.60
2022-10-19T00:42:56.512Z,153.30
2022-10-19T00:43:07.235Z,157.00
2022-10-19T00:43:16.561Z,149.80
2022-10-19T00:43:26.514Z,139.40
2022-10-19T00:43:36.510Z,133.10
2022-10-19T00:43:46.526Z,128.10
2022-10-19T00:43:56.523Z,130.60
2022-10-19T00:44:09.293Z,125.00
2022-10-19T00:44:16.501Z,128.10
2022-10-19T00:44:26.504Z,130.80
2022-10-19T00:44:36.520Z,137.50
2022-10-19T00:44:46.505Z,138.40
2022-10-19T00:44:56.606Z,136.20
2022-10-19T00:45:06.528Z,132.70
2022-10-19T00:45:16.540Z,131.40
2022-10-19T00:45:26.507Z,128.80
2022-10-19T00:45:36.504Z,121.90
2022-10-19T00:45:46.515Z,116.70
2022-10-19T00:45:56.506Z,116.10
2022-10-19T00:46:06.523Z,119.40
2022-10-19T00:46:16.615Z,120.40
2022-10-19T00:46:26.506Z,123.20
2022-10-19T00:46:36.491Z,119.00
2022-10-19T00:46:46.517Z,109.20
2022-10-19T00:46:56.554Z,102.60
2022-10-19T00:47:06.492Z,105.30
2022-10-19T00:47:16.517Z,111.60
2022-10-19T00:47:26.580Z,110.20
2022-10-19T00:47:36.487Z,103.30
2022-10-19T00:47:46.491Z,100.90
2022-10-19T00:47:56.494Z,104.20
2022-10-19T00:48:06.491Z,105.10
2022-10-19T00:48:17.241Z,102.00
2022-10-19T00:48:26.514Z,99.50
2022-10-19T00:48:36.639Z,97.30
2022-10-19T00:48:47.260Z,100.30
2022-10-19T00:48:56.494Z,97.60
2022-10-19T00:49:09.856Z,96.10
2022-10-19T00:49:16.491Z,94.30
2022-10-19T00:49:26.498Z,92.70
2022-10-19T00:49:36.505Z,92.80
2022-10-19T00:49:46.600Z,96.90
2022-10-19T00:49:56.500Z,104.60
2022-10-19T00:50:06.487Z,108.20
2022-10-19T00:50:17.254Z,105.80
2022-10-19T00:50:26.477Z,101.70
2022-10-19T00:50:36.478Z,97.50
2022-10-19T00:50:47.254Z,97.40
2022-10-19T00:50:56.481Z,98.50
2022-10-19T00:51:06.480Z,110.40
2022-10-19T00:51:16.479Z,107.20
2022-10-19T00:51:26.543Z,103.90
2022-10-19T00:51:36.474Z,87.70
2022-10-19T00:51:46.485Z,83.80
2022-10-19T00:51:56.478Z,90.70
2022-10-19T00:52:06.524Z,99.60
2022-10-19T00:52:16.531Z,105.90
2022-10-19T00:52:27.264Z,100.00
2022-10-19T00:52:36.763Z,94.90
2022-10-19T00:52:46.494Z,92.60
2022-10-19T00:52:56.489Z,82.90
2022-10-19T00:53:06.489Z,86.80
2022-10-19T00:53:16.460Z,85.10
2022-10-19T00:53:26.626Z,95.60
2022-10-19T00:53:36.459Z,95.70
2022-10-19T00:53:46.466Z,94.40
2022-10-19T00:53:56.464Z,91.80
2022-10-19T00:54:06.464Z,95.50
2022-10-19T00:54:16.488Z,101.40
2022-10-19T00:54:27.243Z,104.40
2022-10-19T00:54:36.458Z,104.80
2022-10-19T00:54:46.473Z,107.90
2022-10-19T00:54:56.548Z,102.30
2022-10-19T00:55:06.475Z,97.10
2022-10-19T00:55:16.466Z,92.20
2022-10-19T00:55:26.469Z,96.50
2022-10-19T00:55:36.467Z,96.70
2022-10-19T00:55:46.483Z,97.70
2022-10-19T00:55:56.463Z,95.10
2022-10-19T00:56:06.457Z,88.70
2022-10-19T00:56:16.447Z,81.60
2022-10-19T00:56:26.468Z,87.70
2022-10-19T00:56:37.263Z,92.60
2022-10-19T00:56:46.448Z,94.20
2022-10-19T00:56:56.450Z,84.00
2022-10-19T00:57:06.490Z,78.20
2022-10-19T00:57:16.499Z,71.40
2022-10-19T00:57:26.454Z,72.00
2022-10-19T00:57:37.284Z,75.10
2022-10-19T00:57:46.462Z,77.70
2022-10-19T00:57:56.459Z,84.30
2022-10-19T00:58:06.455Z,82.00
2022-10-19T00:58:16.454Z,88.20
2022-10-19T00:58:27.258Z,84.20
2022-10-19T00:58:37.246Z,82.50
2022-10-19T00:58:46.558Z,84.00
2022-10-19T00:58:56.454Z,78.50
2022-10-19T00:59:06.446Z,81.90
2022-10-19T00:59:16.445Z,82.40
2022-10-19T00:59:26.442Z,83.30
2022-10-19T00:59:36.434Z,84.20
2022-10-19T00:59:46.440Z,79.40
2022-10-19T00:59:56.433Z,79.70
2022-10-19T01:00:06.439Z,84.70
2022-10-19T01:00:16.439Z,87.40
2022-10-19T01:00:26.443Z,89.70
2022-10-19T01:00:36.431Z,79.30
2022-10-19T01:00:47.341Z,77.90
2022-10-19T01:00:56.495Z,80.60
2022-10-19T01:01:06.509Z,86.60
2022-10-19T01:01:16.521Z,87.70
2022-10-19T01:01:26.553Z,80.40
2022-10-19T01:01:36.445Z,76.70
2022-10-19T01:01:46.442Z,83.00
2022-10-19T01:01:56.450Z,92.20
2022-10-19T01:02:06.459Z,97.80
2022-10-19T01:02:16.425Z,91.00
2022-10-19T01:02:26.539Z,92.60
2022-10-19T01:02:36.849Z,84.30
2022-10-19T01:02:46.470Z,86.30
2022-10-19T01:02:56.599Z,80.90
2022-10-19T01:03:06.425Z,92.60
2022-10-19T01:03:16.429Z,93.80
2022-10-19T01:03:26.429Z,90.20
2022-10-19T01:03:36.436Z,81.50
2022-10-19T01:03:46.420Z,70.70
2022-10-19T01:03:56.430Z,69.00
2022-10-19T01:04:06.454Z,68.10
2022-10-19T01:04:16.424Z,72.80
2022-10-19T01:04:26.460Z,72.10
2022-10-19T01:04:36.426Z,72.70
2022-10-19T01:04:46.430Z,73.10
2022-10-19T01:04:57.387Z,75.00
2022-10-19T01:05:06.438Z,79.70
2022-10-19T01:05:16.407Z,84.00
2022-10-19T01:05:26.431Z,94.60
2022-10-19T01:05:36.512Z,95.20
2022-10-19T01:05:46.429Z,96.20
2022-10-19T01:05:56.411Z,94.00
2022-10-19T01:06:06.407Z,91.40
2022-10-19T01:06:16.413Z,87.50
2022-10-19T01:06:26.422Z,86.50
2022-10-19T01:06:36.403Z,80.50
2022-10-19T01:06:46.462Z,80.70
2022-10-19T01:06:57.253Z,77.10
2022-10-19T01:07:06.412Z,79.40
2022-10-19T01:07:16.412Z,78.50
2022-10-19T01:07:26.519Z,76.20
2022-10-19T01:07:37.627Z,77.50
2022-10-19T01:07:46.427Z,74.60
2022-10-19T01:07:57.326Z,77.30
2022-10-19T01:08:07.246Z,79.80
2022-10-19T01:08:16.393Z,94.00
2022-10-19T01:08:26.398Z,99.50
2022-10-19T01:08:36.423Z,110.00
2022-10-19T01:08:46.404Z,105.80
2022-10-19T01:08:56.433Z,105.90
2022-10-19T01:09:06.469Z,102.80
2022-10-19T01:09:16.392Z,100.40
2022-10-19T01:09:26.434Z,97.70
2022-10-19T01:09:36.392Z,92.20
2022-10-19T01:09:46.400Z,92.00
2022-10-19T01:09:56.394Z,95.80
2022-10-19T01:10:06.411Z,99.60
2022-10-19T01:10:16.460Z,99.40
2022-10-19T01:10:26.396Z,94.40
2022-10-19T01:10:36.486Z,95.80
2022-10-19T01:10:46.511Z,93.00
2022-10-19T01:10:56.516Z,96.10
2022-10-19T01:11:07.259Z,91.60
2022-10-19T01:11:16.490Z,93.00
2022-10-19T01:11:26.402Z,90.30
2022-10-19T01:11:36.401Z,90.50
2022-10-19T01:11:46.397Z,94.00
2022-10-19T01:11:56.402Z,97.80
2022-10-19T01:12:06.392Z,101.00
2022-10-19T01:12:16.382Z,102.50
2022-10-19T01:12:26.387Z,100.70
2022-10-19T01:12:36.444Z,103.70
2022-10-19T01:12:46.426Z,105.00
2022-10-19T01:12:56.381Z,109.40
2022-10-19T01:13:06.405Z,109.20
2022-10-19T01:13:16.443Z,107.30
2022-10-19T01:13:26.395Z,109.30
2022-10-19T01:13:36.395Z,111.80
2022-10-19T01:13:47.261Z,116.10
2022-10-19T01:13:56.423Z,106.60
2022-10-19T01:14:06.395Z,98.50
2022-10-19T01:14:16.386Z,100.30
2022-10-19T01:14:26.371Z,101.70
2022-10-19T01:14:36.365Z,107.40
2022-10-19T01:14:46.391Z,99.70
2022-10-19T01:14:56.388Z,99.00
2022-10-19T01:15:06.368Z,92.60
2022-10-19T01:15:17.254Z,95.00
2022-10-19T01:15:26.375Z,99.10
2022-10-19T01:15:36.376Z,102.40
2022-10-19T01:15:46.420Z,102.40
2022-10-19T01:15:56.393Z,99.80
2022-10-19T01:16:06.371Z,95.40
2022-10-19T01:16:16.369Z,86.20
2022-10-19T01:16:26.364Z,85.70
2022-10-19T01:16:36.367Z,88.20
2022-10-19T01:16:46.367Z,95.00
2022-10-19T01:16:56.385Z,96.50
2022-10-19T01:17:06.380Z,97.70
2022-10-19T01:17:17.256Z,101.00
2022-10-19T01:17:26.497Z,99.00
2022-10-19T01:17:36.629Z,97.40
2022-10-19T01:17:46.381Z,93.30
2022-10-19T01:17:56.445Z,95.50
2022-10-19T01:18:06.359Z,96.20
2022-10-19T01:18:16.353Z,96.10
2022-10-19T01:18:26.412Z,95.00
2022-10-19T01:18:37.251Z,89.40
2022-10-19T01:18:46.370Z,87.50
2022-10-19T01:18:56.413Z,88.70
2022-10-19T01:19:06.412Z,90.40
2022-10-19T01:19:16.373Z,95.70
2022-10-19T01:19:29.280Z,96.10
2022-10-19T01:19:36.349Z,105.60
2022-10-19T01:19:46.352Z,102.20
2022-10-19T01:19:56.359Z,98.10
2022-10-19T01:20:06.356Z,93.10
2022-10-19T01:20:16.367Z,97.00
2022-10-19T01:20:26.355Z,101.80
2022-10-19T01:20:36.350Z,103.10
2022-10-19T01:20:46.373Z,107.00
2022-10-19T01:20:56.362Z,114.50
2022-10-19T01:21:06.400Z,117.00
2022-10-19T01:21:16.482Z,115.40
2022-10-19T01:21:26.370Z,111.20
2022-10-19T01:21:36.475Z,109.00
2022-10-19T01:21:46.386Z,111.10
2022-10-19T01:21:56.420Z,114.30
2022-10-19T01:22:06.346Z,114.90
2022-10-19T01:22:16.404Z,115.70
2022-10-19T01:22:26.402Z,110.90
2022-10-19T01:22:36.358Z,108.30
2022-10-19T01:22:46.343Z,103.00
2022-10-19T01:22:56.356Z,98.40
2022-10-19T01:23:06.412Z,99.20
2022-10-19T01:23:16.351Z,99.30
2022-10-19T01:23:26.342Z,109.30
2022-10-19T01:23:37.284Z,117.90
2022-10-19T01:23:46.557Z,123.30
2022-10-19T01:23:56.360Z,118.90
2022-10-19T01:24:06.324Z,117.40
2022-10-19T01:24:16.346Z,119.10
2022-10-19T01:24:26.326Z,118.90
2022-10-19T01:24:38.439Z,116.90
2022-10-19T01:24:46.388Z,111.40
2022-10-19T01:24:56.333Z,111.80
2022-10-19T01:25:06.326Z,109.90
2022-10-19T01:25:16.329Z,112.80
2022-10-19T01:25:26.320Z,120.20
2022-10-19T01:25:37.312Z,121.00
2022-10-19T01:25:46.325Z,119.30
2022-10-19T01:25:56.324Z,111.40
2022-10-19T01:26:07.257Z,114.30
2022-10-19T01:26:16.323Z,112.70
2022-10-19T01:26:26.353Z,109.80
2022-10-19T01:26:36.342Z,107.40
2022-10-19T01:26:46.325Z,110.80
2022-10-19T01:26:56.335Z,118.50
2022-10-19T01:27:06.340Z,114.20
2022-10-19T01:27:16.320Z,116.40
2022-10-19T01:27:26.380Z,116.10
2022-10-19T01:27:36.620Z,120.80
2022-10-19T01:27:47.265Z,123.70
2022-10-19T01:27:56.313Z,123.40
2022-10-19T01:28:06.316Z,128.80
2022-10-19T01:28:16.425Z,124.40
2022-10-19T01:28:26.343Z,127.70
2022-10-19T01:28:36.371Z,126.50
2022-10-19T01:28:46.377Z,133.90
2022-10-19T01:28:56.343Z,126.90
2022-10-19T01:29:06.410Z,122.40
2022-10-19T01:29:16.340Z,117.90
2022-10-19T01:29:26.315Z,126.40
2022-10-19T01:29:36.309Z,126.80
2022-10-19T01:29:47.321Z,124.90
2022-10-19T01:29:56.387Z,119.00
2022-10-19T01:30:06.305Z,120.90
2022-10-19T01:30:16.301Z,108.30
2022-10-19T01:30:26.306Z,104.80
2022-10-19T01:30:36.310Z,96.90
2022-10-19T01:30:46.335Z,103.10
2022-10-19T01:30:56.384Z,101.00
2022-10-19T01:31:06.317Z,104.20
2022-10-19T01:31:16.311Z,107.40
2022-10-19T01:31:26.330Z,116.70
2022-10-19T01:31:36.313Z,119.60
2022-10-19T01:31:47.291Z,126.10
2022-10-19T01:31:57.263Z,118.50
2022-10-19T01:32:06.296Z,118.90
2022-10-19T01:32:16.314Z,113.70
2022-10-19T01:32:26.311Z,112.60
2022-10-19T01:32:36.409Z,112.00
2022-10-19T01:32:46.428Z,106.30
2022-10-19T01:32:56.373Z,107.60
2022-10-19T01:33:06.283Z,101.80
2022-10-19T01:33:16.322Z,106.30
2022-10-19T01:33:26.345Z,112.70
2022-10-19T01:33:36.291Z,123.80
2022-10-19T01:33:47.321Z,120.20
2022-10-19T01:34:06.287Z,117.00
2022-10-19T01:34:16.289Z,121.50
2022-10-19T01:34:26.295Z,121.30
2022-10-19T01:34:36.294Z,112.30
2022-10-19T01:34:46.284Z,113.20
2022-10-19T01:34:56.368Z,111.90
2022-10-19T01:35:06.354Z,114.30
2022-10-19T01:35:16.294Z,117.40
2022-10-19T01:35:26.307Z,117.50
2022-10-19T01:35:36.290Z,119.70
2022-10-19T01:35:46.297Z,120.00
2022-10-19T01:35:56.292Z,124.40
2022-10-19T01:36:07.347Z,127.50
2022-10-19T01:36:16.288Z,127.50
2022-10-19T01:36:26.273Z,131.90
2022-10-19T01:36:36.271Z,128.40
2022-10-19T01:36:47.261Z,123.20
2022-10-19T01:36:56.275Z,120.50
2022-10-19T01:37:06.274Z,123.00
2022-10-19T01:37:16.285Z,125.80
2022-10-19T01:37:26.306Z,121.00
2022-10-19T01:37:36.664Z,122.50
2022-10-19T01:37:46.312Z,117.90
2022-10-19T01:37:56.282Z,122.70
2022-10-19T01:38:06.308Z,126.30
2022-10-19T01:38:17.267Z,130.70
2022-10-19T01:38:26.285Z,136.50
2022-10-19T01:38:36.820Z,133.80
2022-10-19T01:38:46.282Z,131.40
2022-10-19T01:38:56.281Z,126.00
2022-10-19T01:39:06.323Z,130.30
2022-10-19T01:39:16.289Z,135.00
2022-10-19T01:39:26.265Z,135.30
2022-10-19T01:39:36.291Z,130.00
2022-10-19T01:39:49.141Z,129.20
2022-10-19T01:39:56.392Z,125.10
2022-10-19T01:40:06.282Z,125.30
2022-10-19T01:40:16.766Z,122.10
2022-10-19T01:40:27.230Z,120.60
2022-10-19T01:40:36.491Z,117.50
2022-10-19T01:40:46.273Z,120.60
2022-10-19T01:40:56.253Z,127.60
2022-10-19T01:41:06.262Z,133.80
2022-10-19T01:41:16.262Z,134.50
2022-10-19T01:41:26.266Z,141.50
2022-10-19T01:41:36.263Z,137.60
2022-10-19T01:41:46.265Z,134.90
2022-10-19T01:41:56.261Z,132.20
2022-10-19T01:42:06.264Z,134.60
2022-10-19T01:42:16.781Z,141.50
2022-10-19T01:42:26.377Z,137.50
2022-10-19T01:42:36.247Z,140.00
2022-10-19T01:42:46.304Z,132.20
2022-10-19T01:42:56.266Z,129.70
2022-10-19T01:43:06.245Z,124.00
2022-10-19T01:43:16.248Z,128.00
2022-10-19T01:43:26.824Z,133.90
2022-10-19T01:43:36.252Z,139.30
2022-10-19T01:43:46.290Z,139.90
2022-10-19T01:43:56.247Z,130.30
2022-10-19T01:44:06.245Z,125.90
2022-10-19T01:44:16.242Z,127.20
2022-10-19T01:44:28.781Z,130.40
2022-10-19T01:44:36.253Z,136.80
2022-10-19T01:44:46.265Z,137.50
2022-10-19T01:44:56.243Z,141.40
2022-10-19T01:45:06.256Z,143.70
2022-10-19T01:45:16.260Z,142.10
2022-10-19T01:45:26.232Z,140.20
2022-10-19T01:45:36.237Z,134.30
2022-10-19T01:45:46.263Z,131.70
2022-10-19T01:45:56.231Z,126.90
2022-10-19T01:46:06.232Z,122.60
2022-10-19T01:46:16.232Z,121.50
2022-10-19T01:46:26.262Z,128.30
2022-10-19T01:46:36.344Z,137.20
2022-10-19T01:46:46.234Z,139.60
2022-10-19T01:46:56.238Z,129.40
2022-10-19T01:47:06.238Z,126.10
2022-10-19T01:47:16.237Z,125.80
2022-10-19T01:47:26.239Z,133.20
2022-10-19T01:47:36.533Z,130.60
2022-10-19T01:47:46.242Z,131.00
2022-10-19T01:47:56.224Z,136.30
2022-10-19T01:48:06.241Z,137.50
2022-10-19T01:48:16.220Z,138.90
2022-10-19T01:48:26.243Z,134.50
2022-10-19T01:48:36.289Z,139.30
2022-10-19T01:48:46.219Z,140.00
2022-10-19T01:48:56.491Z,139.30
2022-10-19T01:49:06.219Z,137.00
2022-10-19T01:49:16.224Z,132.50
2022-10-19T01:49:26.725Z,129.20
2022-10-19T01:49:36.223Z,125.10
2022-10-19T01:49:46.254Z,126.80
2022-10-19T01:49:56.228Z,133.00
2022-10-19T01:50:06.227Z,138.60
2022-10-19T01:50:16.221Z,137.00
2022-10-19T01:50:26.223Z,141.40
2022-10-19T01:50:36.785Z,141.40
2022-10-19T01:50:46.823Z,143.60
2022-10-19T01:50:56.771Z,136.40
2022-10-19T01:51:06.206Z,136.30
2022-10-19T01:51:16.208Z,137.70
2022-10-19T01:51:26.234Z,137.00
2022-10-19T01:51:36.218Z,136.50
2022-10-19T01:51:46.244Z,140.50
2022-10-19T01:51:56.237Z,147.10
2022-10-19T01:52:06.212Z,144.20
2022-10-19T01:52:16.216Z,136.90
2022-10-19T01:52:26.207Z,134.90
2022-10-19T01:52:36.428Z,138.20
2022-10-19T01:52:46.277Z,150.80
2022-10-19T01:52:56.211Z,149.20
2022-10-19T01:53:06.212Z,146.90
2022-10-19T01:53:16.216Z,142.80
2022-10-19T01:53:26.214Z,138.80
2022-10-19T01:53:36.280Z,132.10
2022-10-19T01:53:46.210Z,125.40
2022-10-19T01:53:56.207Z,127.90
2022-10-19T01:54:06.278Z,137.10
2022-10-19T01:54:16.213Z,141.60
2022-10-19T01:54:26.195Z,141.00
2022-10-19T01:54:36.193Z,144.70
2022-10-19T01:54:46.779Z,145.10
2022-10-19T01:54:56.268Z,149.40
2022-10-19T01:55:06.193Z,141.00
2022-10-19T01:55:16.291Z,141.80
2022-10-19T01:55:26.202Z,146.00
2022-10-19T01:55:36.187Z,155.00
2022-10-19T01:55:46.191Z,150.00
2022-10-19T01:55:56.206Z,145.20
2022-10-19T01:56:06.194Z,138.10
2022-10-19T01:56:16.211Z,146.20
2022-10-19T01:56:26.194Z,141.70
2022-10-19T01:56:36.207Z,144.80
2022-10-19T01:56:46.224Z,143.80
2022-10-19T01:56:56.776Z,149.40
2022-10-19T01:57:06.178Z,144.20
2022-10-19T01:57:16.774Z,139.40
2022-10-19T01:57:26.850Z,137.70
2022-10-19T01:57:36.333Z,136.70
2022-10-19T01:57:46.173Z,131.50
2022-10-19T01:57:56.176Z,130.40
2022-10-19T01:58:08.373Z,132.70
2022-10-19T01:58:16.229Z,137.60
2022-10-19T01:58:26.188Z,130.70
2022-10-19T01:58:36.214Z,126.90
2022-10-19T01:58:46.210Z,126.00
2022-10-19T01:58:56.226Z,134.40
2022-10-19T01:59:06.272Z,148.70
2022-10-19T01:59:16.211Z,152.90
2022-10-19T01:59:26.188Z,159.80
2022-10-19T01:59:36.217Z,156.60
2022-10-19T01:59:46.185Z,166.00
2022-10-19T01:59:56.191Z,160.70
2022-10-19T02:00:06.183Z,154.90
2022-10-19T02:00:16.196Z,145.30
2022-10-19T02:00:26.164Z,138.40
2022-10-19T02:00:36.827Z,144.10
2022-10-19T02:00:46.298Z,141.30
2022-10-19T02:00:56.329Z,152.30
2022-10-19T02:01:06.958Z,156.60
2022-10-19T02:01:16.208Z,163.80
2022-10-19T02:01:26.157Z,159.30
2022-10-19T02:01:36.181Z,156.50
2022-10-19T02:01:46.168Z,150.10
2022-10-19T02:01:56.176Z,153.10
2022-10-19T02:02:06.176Z,152.40
2022-10-19T02:02:16.181Z,156.50
2022-10-19T02:02:26.163Z,156.60
2022-10-19T02:02:36.384Z,155.20
2022-10-19T02:02:46.178Z,162.10
2022-10-19T02:02:56.175Z,160.10
2022-10-19T02:03:06.760Z,160.10
2022-10-19T02:03:16.783Z,151.10
2022-10-19T02:03:26.212Z,150.70
2022-10-19T02:03:36.246Z,154.50
2022-10-19T02:03:46.176Z,155.60
2022-10-19T02:03:56.225Z,162.00
2022-10-19T02:04:06.205Z,159.70
2022-10-19T02:04:16.174Z,164.70
2022-10-19T02:04:26.234Z,162.50
2022-10-19T02:04:36.159Z,170.30
2022-10-19T02:04:46.175Z,166.50
2022-10-19T02:04:56.159Z,162.50
2022-10-19T02:05:06.160Z,153.70
2022-10-19T02:05:16.765Z,155.20
2022-10-19T02:05:26.165Z,159.30
2022-10-19T02:05:36.174Z,162.10
2022-10-19T02:05:46.166Z,162.00
2022-10-19T02:05:56.176Z,162.90